createdAt,value
2018-12-15T00:00:04.883Z,99.42
2018-12-15T00:01:04.861Z,99.23
2018-12-15T00:02:04.845Z,99.71
2018-12-15T00:03:04.838Z,99.71
2018-12-15T00:04:04.826Z,99.52
2018-12-15T00:05:04.834Z,99.42
2018-12-15T00:06:04.797Z,99.23
2018-12-15T00:07:04.788Z,99.04
2018-12-15T00:08:04.776Z,98.95
2018-12-15T00:09:04.771Z,99.14
2018-12-15T00:10:04.755Z,99.33
2018-12-15T00:11:04.740Z,99.14
2018-12-15T00:12:04.738Z,98.95
2018-12-15T00:13:04.721Z,99.61
2018-12-15T00:14:04.707Z,99.23
2018-12-15T00:15:04.697Z,99.42
2018-12-15T00:16:04.706Z,99.33
2018-12-15T00:17:05.801Z,99.42
2018-12-15T00:18:04.661Z,99.99
2018-12-15T00:19:04.650Z,99.99
2018-12-15T00:20:04.641Z,99.14
2018-12-15T00:21:04.627Z,99.42
2018-12-15T00:22:04.617Z,99.14
2018-12-15T00:23:04.610Z,99.14
2018-12-15T00:24:04.595Z,98.85
2018-12-15T00:25:04.581Z,98.66
2018-12-15T00:26:04.571Z,98.76
2018-12-15T00:27:04.587Z,98.57
2018-12-15T00:28:04.544Z,99.04
2018-12-15T00:29:04.538Z,98.95
2018-12-15T00:30:04.521Z,99.04
2018-12-15T00:31:04.513Z,98.95
2018-12-15T00:32:04.501Z,98.85
2018-12-15T00:33:04.489Z,98.85
2018-12-15T00:34:04.478Z,99.42
2018-12-15T00:35:04.466Z,98.95
2018-12-15T00:36:04.456Z,98.76
2018-12-15T00:37:04.447Z,98.19
2018-12-15T00:38:05.078Z,98.95
2018-12-15T00:39:04.423Z,98.85
2018-12-15T00:40:04.411Z,98.47
2018-12-15T00:41:04.400Z,97.91
2018-12-15T00:42:04.387Z,97.34
2018-12-15T00:43:04.379Z,96.96
2018-12-15T00:44:04.364Z,97.34
2018-12-15T00:45:04.351Z,98.00
2018-12-15T00:46:04.342Z,98.00
2018-12-15T00:47:04.328Z,98.10
2018-12-15T00:48:04.320Z,98.10
2018-12-15T00:49:04.307Z,98.28
2018-12-15T00:50:04.325Z,98.38
2018-12-15T00:51:04.282Z,97.81
2018-12-15T00:52:04.271Z,98.10
2018-12-15T00:53:04.264Z,98.10
2018-12-15T00:54:04.250Z,98.47
2018-12-15T00:55:04.237Z,98.57
2018-12-15T00:56:06.080Z,98.19
2018-12-15T00:57:04.216Z,98.10
2018-12-15T00:58:04.207Z,98.10
2018-12-15T00:59:04.202Z,97.91
2018-12-15T01:00:04.190Z,97.81
2018-12-15T01:01:04.169Z,97.72
2018-12-15T01:02:04.161Z,97.81
2018-12-15T01:03:04.150Z,97.53
2018-12-15T01:04:04.138Z,97.44
2018-12-15T01:05:04.126Z,98.10
2018-12-15T01:06:04.114Z,97.81
2018-12-15T01:07:04.156Z,98.28
2018-12-15T01:08:04.090Z,98.28
2018-12-15T01:09:04.083Z,98.28
2018-12-15T01:10:04.068Z,98.28
2018-12-15T01:11:04.062Z,98.85
2018-12-15T01:12:04.046Z,98.66
2018-12-15T01:13:04.035Z,98.19
2018-12-15T01:14:04.023Z,98.38
2018-12-15T01:15:04.011Z,98.57
2018-12-15T01:16:04.000Z,97.91
2018-12-15T01:17:03.988Z,97.91
2018-12-15T01:18:03.978Z,98.19
2018-12-15T01:19:03.966Z,98.38
2018-12-15T01:20:03.956Z,98.19
2018-12-15T01:21:03.942Z,98.00
2018-12-15T01:22:03.933Z,97.91
2018-12-15T01:23:03.935Z,98.00
2018-12-15T01:24:03.911Z,98.47
2018-12-15T01:25:03.897Z,98.38
2018-12-15T01:26:03.886Z,98.28
2018-12-15T01:27:03.876Z,98.38
2018-12-15T01:28:03.866Z,98.57
2018-12-15T01:29:03.853Z,98.47
2018-12-15T01:30:03.850Z,97.81
2018-12-15T01:31:03.833Z,98.28
2018-12-15T01:32:03.821Z,98.28
2018-12-15T01:33:03.810Z,97.34
2018-12-15T01:34:03.817Z,97.91
2018-12-15T01:35:03.788Z,97.81
2018-12-15T01:36:03.779Z,97.72
2018-12-15T01:37:03.765Z,98.00
2018-12-15T01:38:03.756Z,98.00
2018-12-15T01:39:03.744Z,97.34
2018-12-15T01:40:03.731Z,97.53
2018-12-15T01:41:03.736Z,97.25
2018-12-15T01:42:03.709Z,98.00
2018-12-15T01:43:03.699Z,97.53
2018-12-15T01:44:03.685Z,98.10
2018-12-15T01:45:03.672Z,97.91
2018-12-15T01:46:04.817Z,98.28
2018-12-15T01:47:03.652Z,98.85
2018-12-15T01:48:03.644Z,99.52
2018-12-15T01:49:03.633Z,99.33
2018-12-15T01:50:03.630Z,99.52
2018-12-15T01:51:03.607Z,99.52
2018-12-15T01:52:03.598Z,99.71
2018-12-15T01:53:03.585Z,98.95
2018-12-15T01:54:03.598Z,98.85
2018-12-15T01:55:03.561Z,99.14
2018-12-15T01:56:03.556Z,99.52
2018-12-15T01:57:03.540Z,99.33
2018-12-15T01:58:03.531Z,99.33
2018-12-15T01:59:03.518Z,99.80
2018-12-15T02:00:03.507Z,99.99
2018-12-15T02:01:03.502Z,98.10
2018-12-15T02:02:03.504Z,97.81
2018-12-15T02:03:03.473Z,97.53
2018-12-15T02:04:03.464Z,97.34
2018-12-15T02:05:03.455Z,97.25
2018-12-15T02:06:03.442Z,97.15
2018-12-15T02:07:03.437Z,97.34
2018-12-15T02:08:03.419Z,96.96
2018-12-15T02:09:03.405Z,97.34
2018-12-15T02:10:03.396Z,97.15
2018-12-15T02:11:03.384Z,97.53
2018-12-15T02:12:03.372Z,98.10
2018-12-15T02:13:03.361Z,97.34
2018-12-15T02:14:03.351Z,97.34
2018-12-15T02:15:03.340Z,97.06
2018-12-15T02:16:03.330Z,97.34
2018-12-15T02:17:03.314Z,97.15
2018-12-15T02:18:03.306Z,97.34
2018-12-15T02:19:03.296Z,97.25
2018-12-15T02:20:03.282Z,97.44
2018-12-15T02:21:03.272Z,97.34
2018-12-15T02:22:03.261Z,97.91
2018-12-15T02:23:03.251Z,97.81
2018-12-15T02:24:03.262Z,97.81
2018-12-15T02:25:03.238Z,98.28
2018-12-15T02:26:03.216Z,98.19
2018-12-15T02:27:03.203Z,98.00
2018-12-15T02:28:03.195Z,97.63
2018-12-15T02:29:03.181Z,98.10
2018-12-15T02:30:03.172Z,97.44
2018-12-15T02:31:03.166Z,98.28
2018-12-15T02:32:03.149Z,97.34
2018-12-15T02:33:03.140Z,97.34
2018-12-15T02:34:03.142Z,98.00
2018-12-15T02:35:03.119Z,97.91
2018-12-15T02:36:03.110Z,98.19
2018-12-15T02:37:03.097Z,98.28
2018-12-15T02:38:03.101Z,98.19
2018-12-15T02:39:03.079Z,97.53
2018-12-15T02:40:03.059Z,97.34
2018-12-15T02:41:03.049Z,96.21
2018-12-15T02:42:03.038Z,96.21
2018-12-15T02:43:03.026Z,96.49
2018-12-15T02:44:03.016Z,96.49
2018-12-15T02:45:03.005Z,96.68
2018-12-15T02:46:02.997Z,97.25
2018-12-15T02:47:02.998Z,97.15
2018-12-15T02:48:02.970Z,97.34
2018-12-15T02:49:02.960Z,97.44
2018-12-15T02:50:02.952Z,97.44
2018-12-15T02:51:02.946Z,97.34
2018-12-15T02:52:02.927Z,97.63
2018-12-15T02:53:02.918Z,97.34
2018-12-15T02:54:02.900Z,98.10
2018-12-15T02:55:02.892Z,98.10
2018-12-15T02:56:02.882Z,98.28
2018-12-15T02:57:02.871Z,98.47
2018-12-15T02:58:02.879Z,98.66
2018-12-15T02:59:02.847Z,98.57
2018-12-15T03:00:02.839Z,97.81
2018-12-15T03:01:02.826Z,98.10
2018-12-15T03:02:02.815Z,98.47
2018-12-15T03:03:02.804Z,98.76
2018-12-15T03:04:02.788Z,98.76
2018-12-15T03:05:02.784Z,99.71
2018-12-15T03:06:02.773Z,98.95
2018-12-15T03:07:02.758Z,98.28
2018-12-15T03:08:02.749Z,97.63
2018-12-15T03:09:02.737Z,97.91
2018-12-15T03:10:02.734Z,98.28
2018-12-15T03:11:02.713Z,97.72
2018-12-15T03:12:02.701Z,97.81
2018-12-15T03:13:02.691Z,97.81
2018-12-15T03:14:02.684Z,97.91
2018-12-15T03:15:02.669Z,98.10
2018-12-15T03:16:02.657Z,98.28
2018-12-15T03:17:02.647Z,98.95
2018-12-15T03:18:02.636Z,98.95
2018-12-15T03:19:02.625Z,99.04
2018-12-15T03:20:02.612Z,99.61
2018-12-15T03:21:02.604Z,99.71
2018-12-15T03:22:02.617Z,99.80
2018-12-15T03:23:02.601Z,98.85
2018-12-15T03:24:02.570Z,98.95
2018-12-15T03:25:02.560Z,98.19
2018-12-15T03:26:02.548Z,98.38
2018-12-15T03:27:02.542Z,98.10
2018-12-15T03:28:02.522Z,98.19
2018-12-15T03:29:02.511Z,97.91
2018-12-15T03:30:02.504Z,97.44
2018-12-15T03:31:02.491Z,97.06
2018-12-15T03:32:02.492Z,96.49
2018-12-15T03:33:02.470Z,96.49
2018-12-15T03:34:02.458Z,96.59
2018-12-15T03:35:02.448Z,97.06
2018-12-15T03:36:02.440Z,97.63
2018-12-15T03:37:02.429Z,97.15
2018-12-15T03:38:02.431Z,97.53
2018-12-15T03:39:02.411Z,97.34
2018-12-15T03:40:02.396Z,97.91
2018-12-15T03:41:02.380Z,97.72
2018-12-15T03:42:02.394Z,98.10
2018-12-15T03:43:02.398Z,98.19
2018-12-15T03:44:02.347Z,97.63
2018-12-15T03:45:02.339Z,98.10
2018-12-15T03:46:02.334Z,98.38
2018-12-15T03:47:02.316Z,98.57
2018-12-15T03:48:02.305Z,98.47
2018-12-15T03:49:02.296Z,99.14
2018-12-15T03:50:02.285Z,98.76
2018-12-15T03:51:02.272Z,98.00
2018-12-15T03:52:02.262Z,98.10
2018-12-15T03:53:02.250Z,97.25
2018-12-15T03:54:02.244Z,96.21
2018-12-15T03:55:02.253Z,96.02
2018-12-15T03:56:02.216Z,96.40
2018-12-15T03:57:02.214Z,96.68
2018-12-15T03:58:02.231Z,97.15
2018-12-15T03:59:02.219Z,96.96
2018-12-15T04:00:02.177Z,96.21
2018-12-15T04:01:02.160Z,96.30
2018-12-15T04:02:02.148Z,96.21
2018-12-15T04:03:02.137Z,96.40
2018-12-15T04:04:02.131Z,96.49
2018-12-15T04:05:02.117Z,96.78
2018-12-15T04:06:02.103Z,97.34
2018-12-15T04:07:02.091Z,97.72
2018-12-15T04:08:02.080Z,97.44
2018-12-15T04:09:02.071Z,97.91
2018-12-15T04:10:02.058Z,97.72
2018-12-15T04:11:02.047Z,97.91
2018-12-15T04:12:02.036Z,97.53
2018-12-15T04:13:02.029Z,96.49
2018-12-15T04:14:02.027Z,95.64
2018-12-15T04:15:02.006Z,94.89
2018-12-15T04:16:02.167Z,94.89
2018-12-15T04:17:01.976Z,94.79
2018-12-15T04:18:03.851Z,94.70
2018-12-15T04:19:01.955Z,95.17
2018-12-15T04:20:01.949Z,95.26
2018-12-15T04:21:02.006Z,95.54
2018-12-15T04:22:01.925Z,95.45
2018-12-15T04:23:01.914Z,95.83
2018-12-15T04:24:01.901Z,95.45
2018-12-15T04:25:01.892Z,95.64
2018-12-15T04:26:01.882Z,96.21
2018-12-15T04:27:01.870Z,96.30
2018-12-15T04:28:01.856Z,96.49
2018-12-15T04:29:01.851Z,96.96
2018-12-15T04:30:01.840Z,96.96
2018-12-15T04:31:01.824Z,97.34
2018-12-15T04:32:01.812Z,97.25
2018-12-15T04:33:01.802Z,97.81
2018-12-15T04:34:01.788Z,98.10
2018-12-15T04:35:01.786Z,98.47
2018-12-15T04:36:01.768Z,98.57
2018-12-15T04:37:09.114Z,98.19
2018-12-15T04:38:55.204Z,98.28
2018-12-15T04:39:55.148Z,97.63
2018-12-15T04:41:48.537Z,97.34
2018-12-15T04:42:48.505Z,97.15
2018-12-15T04:44:41.385Z,96.30
2018-12-15T04:45:41.324Z,96.30
2018-12-15T04:47:34.871Z,96.02
2018-12-15T04:48:34.718Z,96.96
2018-12-15T04:50:28.169Z,96.96
2018-12-15T04:51:28.076Z,96.21
2018-12-15T04:53:21.499Z,95.83
2018-12-15T04:54:21.439Z,95.17
2018-12-15T04:56:14.900Z,96.02
2018-12-15T04:57:14.858Z,95.73
2018-12-15T04:59:08.269Z,95.83
2018-12-15T05:00:08.270Z,95.83
2018-12-15T05:02:01.119Z,95.64
2018-12-15T05:03:01.078Z,96.68
2018-12-15T05:04:53.964Z,95.92
2018-12-15T05:05:53.920Z,95.54
2018-12-15T05:07:47.314Z,94.89
2018-12-15T05:08:47.291Z,95.17
2018-12-15T05:09:47.285Z,95.92
2018-12-15T05:10:47.276Z,95.83
2018-12-15T05:11:47.278Z,96.02
2018-12-15T05:12:47.254Z,96.59
2018-12-15T05:13:47.314Z,96.78
2018-12-15T05:14:47.210Z,96.68
2018-12-15T05:15:47.203Z,95.64
2018-12-15T05:16:47.189Z,95.45
2018-12-15T05:17:47.178Z,95.83
2018-12-15T05:18:47.168Z,95.83
2018-12-15T05:19:47.157Z,95.54
2018-12-15T05:20:47.143Z,95.45
2018-12-15T05:21:47.132Z,95.73
2018-12-15T05:22:47.123Z,96.21
2018-12-15T05:23:47.111Z,96.49
2018-12-15T05:24:47.100Z,96.30
2018-12-15T05:25:47.090Z,96.30
2018-12-15T05:26:47.076Z,97.34
2018-12-15T05:27:48.830Z,96.96
2018-12-15T05:28:47.060Z,96.78
2018-12-15T05:29:47.047Z,96.49
2018-12-15T05:30:47.072Z,96.21
2018-12-15T05:31:47.024Z,94.98
2018-12-15T05:32:47.016Z,94.32
2018-12-15T05:33:47.000Z,94.13
2018-12-15T05:34:46.988Z,93.66
2018-12-15T05:35:46.981Z,93.18
2018-12-15T05:36:46.966Z,92.80
2018-12-15T05:37:46.955Z,93.28
2018-12-15T05:38:46.942Z,94.32
2018-12-15T05:39:46.933Z,94.41
2018-12-15T05:40:46.921Z,94.32
2018-12-15T05:41:46.910Z,94.22
2018-12-15T05:42:46.897Z,94.32
2018-12-15T05:43:46.886Z,94.89
2018-12-15T05:44:46.877Z,95.17
2018-12-15T05:45:46.865Z,94.98
2018-12-15T05:46:46.854Z,95.73
2018-12-15T05:47:46.841Z,95.45
2018-12-15T05:48:46.831Z,94.79
2018-12-15T05:49:46.819Z,94.98
2018-12-15T05:50:46.816Z,94.60
2018-12-15T05:51:46.797Z,94.32
2018-12-15T05:52:46.786Z,94.79
2018-12-15T05:53:46.785Z,95.07
2018-12-15T05:54:46.765Z,94.89
2018-12-15T05:55:46.754Z,94.51
2018-12-15T05:56:46.773Z,94.32
2018-12-15T05:57:46.754Z,93.94
2018-12-15T05:58:46.727Z,94.13
2018-12-15T05:59:46.765Z,94.60
2018-12-15T06:00:46.697Z,94.89
2018-12-15T06:01:46.688Z,94.98
2018-12-15T06:02:46.709Z,94.98
2018-12-15T06:03:46.671Z,94.98
2018-12-15T06:04:46.689Z,94.32
2018-12-15T06:05:46.636Z,94.32
2018-12-15T06:06:46.631Z,94.60
2018-12-15T06:07:46.629Z,94.13
2018-12-15T06:08:46.605Z,94.13
2018-12-15T06:09:46.594Z,93.28
2018-12-15T06:10:46.595Z,92.71
2018-12-15T06:11:46.607Z,92.61
2018-12-15T06:12:46.570Z,92.99
2018-12-15T06:13:46.556Z,93.18
2018-12-15T06:14:46.540Z,93.66
2018-12-15T06:15:46.532Z,93.94
2018-12-15T06:16:46.514Z,93.84
2018-12-15T06:17:46.504Z,94.22
2018-12-15T06:18:46.528Z,94.51
2018-12-15T06:19:46.486Z,94.13
2018-12-15T06:20:46.479Z,93.94
2018-12-15T06:21:46.459Z,93.37
2018-12-15T06:22:46.448Z,93.56
2018-12-15T06:23:46.438Z,93.28
2018-12-15T06:24:46.427Z,93.28
2018-12-15T06:25:46.416Z,94.03
2018-12-15T06:26:46.403Z,94.32
2018-12-15T06:27:46.436Z,93.84
2018-12-15T06:28:46.418Z,92.99
2018-12-15T06:29:46.392Z,93.28
2018-12-15T06:30:46.364Z,93.84
2018-12-15T06:31:46.351Z,93.84
2018-12-15T06:32:46.339Z,93.66
2018-12-15T06:33:46.341Z,93.09
2018-12-15T06:34:46.313Z,93.28
2018-12-15T06:35:46.335Z,93.18
2018-12-15T06:36:46.309Z,93.18
2018-12-15T06:37:46.278Z,93.09
2018-12-15T06:38:46.273Z,93.84
2018-12-15T06:39:46.748Z,93.56
2018-12-15T06:40:46.248Z,93.09
2018-12-15T06:41:46.262Z,93.09
2018-12-15T06:42:46.221Z,92.61
2018-12-15T06:43:47.058Z,92.61
2018-12-15T06:44:46.246Z,92.90
2018-12-15T06:45:53.593Z,92.33
2018-12-15T06:47:39.413Z,92.80
2018-12-15T06:48:39.311Z,92.43
2018-12-15T06:50:32.096Z,91.67
2018-12-15T06:51:32.237Z,91.10
2018-12-15T06:53:25.234Z,91.25
2018-12-15T06:54:24.884Z,91.72
2018-12-15T06:55:24.747Z,91.67
2018-12-15T06:56:25.141Z,92.33
2018-12-15T06:57:24.701Z,91.48
2018-12-15T06:58:32.178Z,92.05
2018-12-15T07:00:19.164Z,91.77
2018-12-15T07:01:20.000Z,91.86
2018-12-15T07:03:12.112Z,92.33
2018-12-15T07:04:11.966Z,92.24
2018-12-15T07:05:11.950Z,92.57
2018-12-15T07:06:11.752Z,92.80
2018-12-15T07:07:11.849Z,92.66
2018-12-15T07:08:11.731Z,92.43
2018-12-15T07:09:11.716Z,92.33
2018-12-15T07:10:11.703Z,91.82
2018-12-15T07:11:11.692Z,91.91
2018-12-15T07:12:11.679Z,91.72
2018-12-15T07:13:11.668Z,91.91
2018-12-15T07:14:11.655Z,91.72
2018-12-15T07:15:11.655Z,91.44
2018-12-15T07:16:11.636Z,92.33
2018-12-15T07:17:11.621Z,92.00
2018-12-15T07:18:11.611Z,92.29
2018-12-15T07:19:11.606Z,92.47
2018-12-15T07:20:11.589Z,92.57
2018-12-15T07:21:11.593Z,92.66
2018-12-15T07:22:11.566Z,92.76
2018-12-15T07:23:11.550Z,91.91
2018-12-15T07:24:11.541Z,91.63
2018-12-15T07:25:11.531Z,92.00
2018-12-15T07:26:11.515Z,91.91
2018-12-15T07:27:11.506Z,91.53
2018-12-15T07:28:11.495Z,91.06
2018-12-15T07:29:11.482Z,91.34
2018-12-15T07:30:20.705Z,91.25
2018-12-15T07:32:09.156Z,91.25
2018-12-15T07:33:05.800Z,91.34
2018-12-15T07:35:01.135Z,90.87
2018-12-15T07:37:25.426Z,90.87
2018-12-15T07:40:10.424Z,91.82
2018-12-15T07:41:09.738Z,92.00
2018-12-15T07:43:07.102Z,92.47
2018-12-15T07:44:06.106Z,92.76
2018-12-15T07:45:05.431Z,92.76
2018-12-15T07:46:05.605Z,92.47
2018-12-15T07:47:04.040Z,91.91
2018-12-15T07:48:04.477Z,91.91
2018-12-15T07:49:05.206Z,92.14
2018-12-15T07:50:02.252Z,92.10
2018-12-15T07:51:07.019Z,91.72
2018-12-15T07:52:02.558Z,90.77
2018-12-15T07:53:02.140Z,91.06
2018-12-15T07:55:57.815Z,91.25
2018-12-15T07:56:58.152Z,90.77
2018-12-15T07:57:58.036Z,90.87
2018-12-15T07:58:57.940Z,91.53
2018-12-15T08:01:51.259Z,91.86
2018-12-15T08:02:52.788Z,91.77
2018-12-15T08:04:45.712Z,91.20
2018-12-15T08:05:45.828Z,91.06
2018-12-15T08:06:44.871Z,91.10
2018-12-15T08:07:43.510Z,90.68
2018-12-15T08:08:46.389Z,91.06
2018-12-15T08:09:45.016Z,91.20
2018-12-15T08:10:51.667Z,91.25
2018-12-15T08:11:45.690Z,91.25
2018-12-15T08:12:46.271Z,91.91
2018-12-15T08:13:57.713Z,91.34
2018-12-15T08:14:42.526Z,90.87
2018-12-15T08:15:42.454Z,90.87
2018-12-15T08:16:43.403Z,91.15
2018-12-15T08:17:42.282Z,90.87
2018-12-15T08:20:43.675Z,91.06
2018-12-15T08:21:38.827Z,91.15
2018-12-15T08:25:09.539Z,90.68
2018-12-15T08:28:01.372Z,90.82
2018-12-15T08:28:59.938Z,90.54
2018-12-15T08:29:59.949Z,91.10
2018-12-15T08:32:22.412Z,90.87
2018-12-15T08:35:18.503Z,91.10
2018-12-15T08:38:25.679Z,90.77
2018-12-15T08:39:12.114Z,90.68
2018-12-15T08:40:10.715Z,90.91
2018-12-15T08:43:10.673Z,91.06
2018-12-15T08:44:07.747Z,90.96
2018-12-15T08:46:47.313Z,90.59
2018-12-15T08:47:45.330Z,91.01
2018-12-15T08:49:38.809Z,90.82
2018-12-15T08:50:40.251Z,90.30
2018-12-15T08:52:34.876Z,90.87
2018-12-15T08:53:33.477Z,90.87
2018-12-15T08:55:28.045Z,90.73
2018-12-15T08:56:26.101Z,90.59
2018-12-15T08:57:26.920Z,90.49
2018-12-15T08:58:26.393Z,90.16
2018-12-15T09:01:24.499Z,90.25
2018-12-15T09:02:20.916Z,90.63
2018-12-15T09:04:21.830Z,90.91
2018-12-15T09:07:09.202Z,90.44
2018-12-15T09:08:10.869Z,90.68
2018-12-15T09:09:10.287Z,90.82
2018-12-15T09:10:08.334Z,89.78
2018-12-15T09:11:13.245Z,89.92
2018-12-15T09:12:09.763Z,89.36
2018-12-15T09:13:09.675Z,89.59
2018-12-15T09:14:47.199Z,89.54
2018-12-15T09:15:09.746Z,90.63
2018-12-15T09:16:11.000Z,90.54
2018-12-15T09:19:11.035Z,90.63
2018-12-15T09:20:04.978Z,90.91
2018-12-15T09:21:10.342Z,90.91
2018-12-15T09:23:18.784Z,90.82
2018-12-15T09:25:54.603Z,90.54
2018-12-15T09:26:50.432Z,90.73
2018-12-15T09:28:45.882Z,90.91
2018-12-15T09:29:43.994Z,91.01
2018-12-15T09:31:41.291Z,89.97
2018-12-15T09:32:37.628Z,90.16
2018-12-15T09:34:35.846Z,90.44
2018-12-15T09:37:34.729Z,90.54
2018-12-15T09:38:25.975Z,90.35
2018-12-15T09:40:20.533Z,90.16
2018-12-15T09:41:19.766Z,90.44
2018-12-15T09:42:21.764Z,90.25
2018-12-15T09:45:18.666Z,90.82
2018-12-15T09:46:16.618Z,90.73
2018-12-15T09:48:09.984Z,90.73
2018-12-15T09:49:09.760Z,90.91
2018-12-15T09:51:03.762Z,90.82
2018-12-15T09:52:02.926Z,90.30
2018-12-15T09:53:57.403Z,90.30
2018-12-15T09:54:57.277Z,90.87
2018-12-15T09:56:51.157Z,90.87
2018-12-15T09:57:49.951Z,90.68
2018-12-15T09:59:44.834Z,90.91
2018-12-15T10:00:43.760Z,90.91
2018-12-15T10:02:38.658Z,91.39
2018-12-15T10:03:38.494Z,90.82
2018-12-15T10:07:07.183Z,90.82
2018-12-15T10:10:05.282Z,90.73
2018-12-15T10:10:59.132Z,90.73
2018-12-15T10:12:52.804Z,90.63
2018-12-15T10:13:51.390Z,90.73
2018-12-15T10:15:48.200Z,90.73
2018-12-15T10:18:42.419Z,90.82
2018-12-15T10:19:48.988Z,90.82
2018-12-15T10:21:36.308Z,91.01
2018-12-15T10:22:35.452Z,91.10
2018-12-15T10:24:28.460Z,90.73
2018-12-15T10:25:26.615Z,90.73
2018-12-15T10:27:26.114Z,90.91
2018-12-15T10:30:10.306Z,91.10
2018-12-15T10:31:12.134Z,90.82
2018-12-15T10:32:12.073Z,91.10
2018-12-15T10:33:06.697Z,91.20
2018-12-15T10:34:08.966Z,91.20
2018-12-15T10:41:19.198Z,92.33
2018-12-15T10:42:40.634Z,92.33
2018-12-15T10:43:17.411Z,91.58
2018-12-15T10:44:20.092Z,91.29
2018-12-15T10:45:23.892Z,91.39
2018-12-15T10:47:09.401Z,90.73
2018-12-15T10:48:09.038Z,91.01
2018-12-15T10:50:02.373Z,91.20
2018-12-15T10:51:02.099Z,90.91
2018-12-15T10:52:55.234Z,91.29
2018-12-15T10:53:55.081Z,91.10
2018-12-15T10:55:48.182Z,90.63
2018-12-15T10:56:48.054Z,90.82
2018-12-15T10:58:41.018Z,90.91
2018-12-15T10:59:40.974Z,90.91
2018-12-15T11:01:33.661Z,90.82
2018-12-15T11:02:33.748Z,90.54
2018-12-15T11:04:26.358Z,91.10
2018-12-15T11:05:26.290Z,90.54
2018-12-15T11:07:19.237Z,90.35
2018-12-15T11:08:19.144Z,90.91
2018-12-15T11:10:12.077Z,90.25
2018-12-15T11:11:12.008Z,90.54
2018-12-15T11:12:11.969Z,90.16
2018-12-15T11:13:12.058Z,90.16
2018-12-15T11:14:11.889Z,90.54
2018-12-15T11:15:11.879Z,90.44
2018-12-15T11:16:11.863Z,90.16
2018-12-15T11:17:12.082Z,90.91
2018-12-15T11:18:24.874Z,90.73
2018-12-15T11:20:07.671Z,90.91
2018-12-15T11:21:05.599Z,90.44
2018-12-15T11:22:05.397Z,90.35
2018-12-15T11:23:05.382Z,90.82
2018-12-15T11:24:05.289Z,90.25
2018-12-15T11:25:05.304Z,90.91
2018-12-15T11:26:05.231Z,90.91
2018-12-15T11:27:05.216Z,90.73
2018-12-15T11:28:05.203Z,90.73
2018-12-15T11:29:05.194Z,90.91
2018-12-15T11:30:05.909Z,90.73
2018-12-15T11:31:05.167Z,90.82
2018-12-15T11:32:05.152Z,90.25
2018-12-15T11:33:05.157Z,89.97
2018-12-15T11:34:05.173Z,90.25
2018-12-15T11:35:06.794Z,90.44
2018-12-15T11:36:05.107Z,90.16
2018-12-15T11:37:05.292Z,90.16
2018-12-15T11:38:05.168Z,89.50
2018-12-15T11:39:05.268Z,89.59
2018-12-15T11:40:05.212Z,89.59
2018-12-15T11:41:05.285Z,90.25
2018-12-15T11:42:05.041Z,90.44
2018-12-15T11:43:05.352Z,90.25
2018-12-15T11:44:05.031Z,90.16
2018-12-15T11:45:05.008Z,90.82
2018-12-15T11:46:05.022Z,90.25
2018-12-15T11:47:05.011Z,90.06
2018-12-15T11:48:05.000Z,90.06
2018-12-15T11:49:04.981Z,90.63
2018-12-15T11:50:12.226Z,90.91
2018-12-15T11:51:57.858Z,91.01
2018-12-15T11:52:57.853Z,91.10
2018-12-15T11:54:51.439Z,90.16
2018-12-15T11:55:51.232Z,90.16
2018-12-15T11:57:44.881Z,90.35
2018-12-15T11:58:44.647Z,90.44
2018-12-15T12:00:38.202Z,90.44
2018-12-15T12:01:38.136Z,90.25
2018-12-15T12:03:31.082Z,89.97
2018-12-15T12:04:30.930Z,90.25
2018-12-15T12:05:30.938Z,89.97
2018-12-15T12:06:30.950Z,89.59
2018-12-15T12:07:30.947Z,89.97
2018-12-15T12:08:30.850Z,90.73
2018-12-15T12:09:30.859Z,90.91
2018-12-15T12:10:30.827Z,90.16
2018-12-15T12:11:30.814Z,89.97
2018-12-15T12:12:31.865Z,89.59
2018-12-15T12:14:23.778Z,89.78
2018-12-15T12:15:23.686Z,90.16
2018-12-15T12:17:16.631Z,89.40
2018-12-15T12:18:16.543Z,89.22
2018-12-15T12:20:10.866Z,89.59
2018-12-15T12:21:10.432Z,89.97
2018-12-15T12:23:03.174Z,89.69
2018-12-15T12:24:03.169Z,89.31
2018-12-15T12:25:56.592Z,89.59
2018-12-15T12:26:56.779Z,89.69
2018-12-15T12:28:50.724Z,90.25
2018-12-15T12:29:50.172Z,90.35
2018-12-15T12:31:43.840Z,90.25
2018-12-15T12:32:43.616Z,90.25
2018-12-15T12:34:36.523Z,90.54
2018-12-15T12:35:36.466Z,90.73
2018-12-15T12:37:36.650Z,90.06
2018-12-15T12:38:29.350Z,91.10
2018-12-15T12:40:22.253Z,90.44
2018-12-15T12:41:23.641Z,90.06
2018-12-15T12:43:15.851Z,91.10
2018-12-15T12:44:15.047Z,91.10
2018-12-15T12:46:09.958Z,90.91
2018-12-15T12:47:08.891Z,90.91
2018-12-15T12:49:01.929Z,91.10
2018-12-15T12:50:02.073Z,90.82
2018-12-15T12:51:56.046Z,91.10
2018-12-15T12:52:55.374Z,90.44
2018-12-15T12:54:48.892Z,90.44
2018-12-15T12:55:48.091Z,90.16
2018-12-15T12:57:41.133Z,90.91
2018-12-15T12:58:41.826Z,91.29
2018-12-15T13:00:34.000Z,90.63
2018-12-15T13:01:34.383Z,90.63
2018-12-15T13:03:26.801Z,90.73
2018-12-15T13:04:26.793Z,90.73
2018-12-15T13:06:21.682Z,90.91
2018-12-15T13:07:22.002Z,90.44
2018-12-15T13:09:13.041Z,90.82
2018-12-15T13:10:12.993Z,90.63
2018-12-15T13:12:05.888Z,91.29
2018-12-15T13:13:05.831Z,90.82
2018-12-15T13:14:58.656Z,90.82
2018-12-15T13:15:58.846Z,90.73
2018-12-15T13:17:53.155Z,90.91
2018-12-15T13:18:53.095Z,90.73
2018-12-15T13:20:47.164Z,90.91
2018-12-15T13:21:47.340Z,91.01
2018-12-15T13:23:39.911Z,90.82
2018-12-15T13:24:42.478Z,90.16
2018-12-15T13:26:33.375Z,90.25
2018-12-15T13:27:32.229Z,90.16
2018-12-15T13:29:25.049Z,91.20
2018-12-15T13:30:24.979Z,90.91
2018-12-15T13:32:18.305Z,91.20
2018-12-15T13:33:17.793Z,90.44
2018-12-15T13:35:11.243Z,91.29
2018-12-15T13:36:10.597Z,90.73
2018-12-15T13:38:03.529Z,90.82
2018-12-15T13:39:04.225Z,90.82
2018-12-15T13:40:57.115Z,91.10
2018-12-15T13:41:57.072Z,90.73
2018-12-15T13:43:52.611Z,90.91
2018-12-15T13:44:50.261Z,91.01
2018-12-15T13:45:50.281Z,90.91
2018-12-15T13:46:50.078Z,91.67
2018-12-15T13:47:50.023Z,91.58
2018-12-15T13:48:50.015Z,91.86
2018-12-15T13:49:50.002Z,91.86
2018-12-15T13:50:49.990Z,91.77
2018-12-15T13:51:49.985Z,91.86
2018-12-15T13:52:49.971Z,91.48
2018-12-15T13:53:49.967Z,91.96
2018-12-15T13:54:50.086Z,91.86
2018-12-15T13:55:49.935Z,92.43
2018-12-15T13:56:49.963Z,92.14
2018-12-15T13:57:49.912Z,91.86
2018-12-15T13:58:49.901Z,92.71
2018-12-15T13:59:49.887Z,92.33
2018-12-15T14:00:49.983Z,92.61
2018-12-15T14:01:49.867Z,92.90
2018-12-15T14:02:49.859Z,92.99
2018-12-15T14:03:49.847Z,93.56
2018-12-15T14:04:49.836Z,93.56
2018-12-15T14:05:50.075Z,94.22
2018-12-15T14:06:57.199Z,94.79
2018-12-15T14:08:43.511Z,95.45
2018-12-15T14:09:43.425Z,96.30
2018-12-15T14:11:36.436Z,96.21
2018-12-15T14:12:36.091Z,96.49
2018-12-15T14:14:29.216Z,95.54
2018-12-15T14:15:28.936Z,95.26
2018-12-15T14:17:22.452Z,95.54
2018-12-15T14:18:22.277Z,96.02
2018-12-15T14:20:16.903Z,96.21
2018-12-15T14:21:15.707Z,96.59
2018-12-15T14:23:09.293Z,97.63
2018-12-15T14:24:08.947Z,98.19
2018-12-15T14:25:08.908Z,98.57
2018-12-15T14:26:08.819Z,99.14
2018-12-15T14:27:08.720Z,99.52
2018-12-15T14:28:08.712Z,99.61
2018-12-15T14:29:08.702Z,99.71
2018-12-15T14:30:08.694Z,99.99
2018-12-15T14:31:08.677Z,99.99
2018-12-15T14:32:08.665Z,99.99
2018-12-15T14:33:08.653Z,99.99
2018-12-15T14:34:08.642Z,99.99
2018-12-15T14:35:08.639Z,99.99
2018-12-15T14:36:08.622Z,99.99
2018-12-15T14:37:08.614Z,99.99
2018-12-15T14:38:08.772Z,99.99
2018-12-15T14:39:10.327Z,99.99
2018-12-15T14:40:10.437Z,99.99
2018-12-15T14:41:16.063Z,99.99
2018-12-15T14:43:02.343Z,99.99
2018-12-15T14:44:01.652Z,99.99
2018-12-15T14:45:54.623Z,99.99
2018-12-15T14:46:54.584Z,99.99
2018-12-15T14:48:48.557Z,99.99
2018-12-15T14:49:48.299Z,99.99
2018-12-15T14:51:41.870Z,99.99
2018-12-15T14:52:41.550Z,99.99
2018-12-15T14:54:34.734Z,99.99
2018-12-15T14:55:34.672Z,99.99
2018-12-15T14:57:27.692Z,99.99
2018-12-15T14:58:27.579Z,99.99
2018-12-15T15:00:20.943Z,99.99
2018-12-15T15:01:20.384Z,99.99
2018-12-15T15:03:13.248Z,99.99
2018-12-15T15:04:13.271Z,99.99
2018-12-15T15:06:06.759Z,99.99
2018-12-15T15:07:06.494Z,99.99
2018-12-15T15:08:59.296Z,99.99
2018-12-15T15:09:59.268Z,99.99
2018-12-15T15:11:52.384Z,99.99